sensor_id;sensor_type;location;lat;lon;timestamp;P1;durP1;ratioP1;P2;durP2;ratioP2
10823;SDS011;39116;59.332;18.034;2022-07-23T00:01:43;17.05;;;8.60;;
10823;SDS011;39116;59.332;18.034;2022-07-23T00:04:10;14.98;;;8.18;;
10823;SDS011;39116;59.332;18.034;2022-07-23T00:06:37;21.95;;;8.93;;
10823;SDS011;39116;59.332;18.034;2022-07-23T00:09:04;17.13;;;8.48;;
10823;SDS011;39116;59.332;18.034;2022-07-23T00:11:30;20.15;;;8.82;;
10823;SDS011;39116;59.332;18.034;2022-07-23T00:13:56;18.77;;;9.18;;
10823;SDS011;39116;59.332;18.034;2022-07-23T00:16:23;20.48;;;9.40;;
10823;SDS011;39116;59.332;18.034;2022-07-23T00:18:49;18.35;;;8.70;;
10823;SDS011;39116;59.332;18.034;2022-07-23T00:21:16;34.30;;;11.40;;
10823;SDS011;39116;59.332;18.034;2022-07-23T00:23:43;25.10;;;11.07;;
10823;SDS011;39116;59.332;18.034;2022-07-23T00:26:10;19.27;;;9.43;;
10823;SDS011;39116;59.332;18.034;2022-07-23T00:28:36;25.33;;;10.40;;
10823;SDS011;39116;59.332;18.034;2022-07-23T00:31:03;24.48;;;10.27;;
10823;SDS011;39116;59.332;18.034;2022-07-23T00:33:29;23.50;;;9.35;;
10823;SDS011;39116;59.332;18.034;2022-07-23T00:35:56;23.63;;;9.50;;
10823;SDS011;39116;59.332;18.034;2022-07-23T00:38:22;30.52;;;10.30;;
10823;SDS011;39116;59.332;18.034;2022-07-23T00:40:50;32.05;;;10.00;;
10823;SDS011;39116;59.332;18.034;2022-07-23T00:43:16;24.98;;;10.15;;
10823;SDS011;39116;59.332;18.034;2022-07-23T00:45:43;31.60;;;10.80;;
10823;SDS011;39116;59.332;18.034;2022-07-23T00:48:09;30.45;;;10.88;;
10823;SDS011;39116;59.332;18.034;2022-07-23T00:50:36;32.33;;;11.75;;
10823;SDS011;39116;59.332;18.034;2022-07-23T00:53:02;31.15;;;12.00;;
10823;SDS011;39116;59.332;18.034;2022-07-23T00:55:28;33.72;;;12.32;;
10823;SDS011;39116;59.332;18.034;2022-07-23T00:57:56;40.10;;;12.63;;
10823;SDS011;39116;59.332;18.034;2022-07-23T01:00:23;30.88;;;10.98;;
10823;SDS011;39116;59.332;18.034;2022-07-23T01:02:50;29.90;;;11.32;;
10823;SDS011;39116;59.332;18.034;2022-07-23T01:05:16;33.00;;;12.00;;
10823;SDS011;39116;59.332;18.034;2022-07-23T01:07:47;44.08;;;12.75;;
10823;SDS011;39116;59.332;18.034;2022-07-23T01:10:13;33.95;;;12.63;;
10823;SDS011;39116;59.332;18.034;2022-07-23T01:13:00;35.88;;;12.25;;
10823;SDS011;39116;59.332;18.034;2022-07-23T01:15:26;36.50;;;11.77;;
10823;SDS011;39116;59.332;18.034;2022-07-23T01:17:53;37.25;;;12.80;;
10823;SDS011;39116;59.332;18.034;2022-07-23T01:20:19;40.15;;;14.10;;
10823;SDS011;39116;59.332;18.034;2022-07-23T01:22:48;31.58;;;11.48;;
10823;SDS011;39116;59.332;18.034;2022-07-23T01:25:14;38.33;;;13.02;;
10823;SDS011;39116;59.332;18.034;2022-07-23T01:27:41;30.27;;;11.73;;
10823;SDS011;39116;59.332;18.034;2022-07-23T01:30:08;23.90;;;11.10;;
10823;SDS011;39116;59.332;18.034;2022-07-23T01:32:34;25.70;;;10.93;;
10823;SDS011;39116;59.332;18.034;2022-07-23T01:35:01;26.65;;;10.50;;
10823;SDS011;39116;59.332;18.034;2022-07-23T01:37:27;26.23;;;9.77;;
10823;SDS011;39116;59.332;18.034;2022-07-23T01:39:55;28.58;;;10.45;;
10823;SDS011;39116;59.332;18.034;2022-07-23T01:42:21;20.55;;;9.10;;
10823;SDS011;39116;59.332;18.034;2022-07-23T01:44:48;24.10;;;8.98;;
10823;SDS011;39116;59.332;18.034;2022-07-23T01:47:14;20.58;;;9.23;;
10823;SDS011;39116;59.332;18.034;2022-07-23T01:49:41;19.92;;;9.63;;
10823;SDS011;39116;59.332;18.034;2022-07-23T01:52:07;20.25;;;9.50;;
10823;SDS011;39116;59.332;18.034;2022-07-23T01:54:36;18.83;;;8.77;;
10823;SDS011;39116;59.332;18.034;2022-07-23T01:57:04;21.98;;;9.30;;
10823;SDS011;39116;59.332;18.034;2022-07-23T01:59:31;21.75;;;9.52;;
10823;SDS011;39116;59.332;18.034;2022-07-23T02:01:57;24.13;;;9.00;;
10823;SDS011;39116;59.332;18.034;2022-07-23T02:04:24;24.98;;;9.32;;
10823;SDS011;39116;59.332;18.034;2022-07-23T02:06:51;20.85;;;8.75;;
10823;SDS011;39116;59.332;18.034;2022-07-23T02:09:18;20.45;;;8.38;;
10823;SDS011;39116;59.332;18.034;2022-07-23T02:11:44;20.02;;;8.48;;
10823;SDS011;39116;59.332;18.034;2022-07-23T02:14:12;20.27;;;8.40;;
10823;SDS011;39116;59.332;18.034;2022-07-23T02:16:38;19.20;;;8.65;;
10823;SDS011;39116;59.332;18.034;2022-07-23T02:19:05;18.48;;;7.70;;
10823;SDS011;39116;59.332;18.034;2022-07-23T02:21:31;15.13;;;7.20;;
10823;SDS011;39116;59.332;18.034;2022-07-23T02:23:58;16.27;;;7.55;;
10823;SDS011;39116;59.332;18.034;2022-07-23T02:26:24;18.42;;;8.15;;
10823;SDS011;39116;59.332;18.034;2022-07-23T02:28:51;21.27;;;8.25;;
10823;SDS011;39116;59.332;18.034;2022-07-23T02:31:19;18.42;;;7.53;;
10823;SDS011;39116;59.332;18.034;2022-07-23T02:33:46;20.48;;;7.95;;
10823;SDS011;39116;59.332;18.034;2022-07-23T02:36:12;16.90;;;6.85;;
10823;SDS011;39116;59.332;18.034;2022-07-23T02:38:38;17.70;;;6.57;;
10823;SDS011;39116;59.332;18.034;2022-07-23T02:41:05;15.20;;;6.75;;
10823;SDS011;39116;59.332;18.034;2022-07-23T02:43:31;14.70;;;5.47;;
10823;SDS011;39116;59.332;18.034;2022-07-23T02:45:58;12.60;;;5.13;;
10823;SDS011;39116;59.332;18.034;2022-07-23T02:48:27;10.82;;;5.10;;
10823;SDS011;39116;59.332;18.034;2022-07-23T02:50:53;12.35;;;4.43;;
10823;SDS011;39116;59.332;18.034;2022-07-23T02:53:21;9.77;;;4.68;;
10823;SDS011;39116;59.332;18.034;2022-07-23T02:55:48;8.75;;;4.68;;
10823;SDS011;39116;59.332;18.034;2022-07-23T02:58:14;7.20;;;3.60;;
10823;SDS011;39116;59.332;18.034;2022-07-23T03:00:41;5.50;;;3.63;;
10823;SDS011;39116;59.332;18.034;2022-07-23T03:03:07;6.72;;;3.58;;
10823;SDS011;39116;59.332;18.034;2022-07-23T03:05:35;4.88;;;3.33;;
10823;SDS011;39116;59.332;18.034;2022-07-23T03:08:01;6.28;;;3.42;;
10823;SDS011;39116;59.332;18.034;2022-07-23T03:10:28;6.07;;;3.20;;
10823;SDS011;39116;59.332;18.034;2022-07-23T03:12:54;4.82;;;2.90;;
10823;SDS011;39116;59.332;18.034;2022-07-23T03:15:21;4.35;;;2.78;;
10823;SDS011;39116;59.332;18.034;2022-07-23T03:17:47;4.60;;;2.22;;
10823;SDS011;39116;59.332;18.034;2022-07-23T03:20:14;3.05;;;2.20;;
10823;SDS011;39116;59.332;18.034;2022-07-23T03:22:41;3.92;;;2.20;;
10823;SDS011;39116;59.332;18.034;2022-07-23T03:25:08;4.35;;;2.53;;
10823;SDS011;39116;59.332;18.034;2022-07-23T03:27:35;5.18;;;2.72;;
10823;SDS011;39116;59.332;18.034;2022-07-23T03:30:01;3.35;;;2.00;;
10823;SDS011;39116;59.332;18.034;2022-07-23T03:32:28;4.90;;;2.58;;
10823;SDS011;39116;59.332;18.034;2022-07-23T03:34:54;3.50;;;2.25;;
10823;SDS011;39116;59.332;18.034;2022-07-23T03:37:20;4.18;;;2.47;;
10823;SDS011;39116;59.332;18.034;2022-07-23T03:39:48;2.40;;;1.88;;
10823;SDS011;39116;59.332;18.034;2022-07-23T03:42:15;5.07;;;2.28;;
10823;SDS011;39116;59.332;18.034;2022-07-23T03:44:41;3.35;;;2.10;;
10823;SDS011;39116;59.332;18.034;2022-07-23T03:47:07;2.80;;;1.90;;
10823;SDS011;39116;59.332;18.034;2022-07-23T03:49:34;3.22;;;1.85;;
10823;SDS011;39116;59.332;18.034;2022-07-23T03:52:00;3.30;;;1.77;;
10823;SDS011;39116;59.332;18.034;2022-07-23T03:54:27;2.47;;;1.80;;
10823;SDS011;39116;59.332;18.034;2022-07-23T03:56:54;4.10;;;1.85;;
10823;SDS011;39116;59.332;18.034;2022-07-23T03:59:21;4.63;;;1.77;;
10823;SDS011;39116;59.332;18.034;2022-07-23T04:01:48;2.63;;;1.77;;
10823;SDS011;39116;59.332;18.034;2022-07-23T04:04:14;2.25;;;1.70;;
10823;SDS011;39116;59.332;18.034;2022-07-23T04:06:40;2.92;;;1.80;;
10823;SDS011;39116;59.332;18.034;2022-07-23T04:09:07;3.08;;;1.80;;
10823;SDS011;39116;59.332;18.034;2022-07-23T04:11:33;4.60;;;2.00;;
10823;SDS011;39116;59.332;18.034;2022-07-23T04:14:01;3.95;;;2.15;;
10823;SDS011;39116;59.332;18.034;2022-07-23T04:16:28;3.10;;;1.83;;
10823;SDS011;39116;59.332;18.034;2022-07-23T04:18:56;2.67;;;1.90;;
10823;SDS011;39116;59.332;18.034;2022-07-23T04:21:22;3.22;;;1.80;;
10823;SDS011;39116;59.332;18.034;2022-07-23T04:23:49;2.45;;;1.65;;
10823;SDS011;39116;59.332;18.034;2022-07-23T04:26:15;4.78;;;2.03;;
10823;SDS011;39116;59.332;18.034;2022-07-23T04:28:42;2.13;;;1.50;;
10823;SDS011;39116;59.332;18.034;2022-07-23T04:31:09;3.45;;;1.80;;
10823;SDS011;39116;59.332;18.034;2022-07-23T04:33:36;2.70;;;1.95;;
10823;SDS011;39116;59.332;18.034;2022-07-23T04:36:03;2.33;;;1.70;;
10823;SDS011;39116;59.332;18.034;2022-07-23T04:38:29;3.10;;;1.70;;
10823;SDS011;39116;59.332;18.034;2022-07-23T04:40:57;3.13;;;2.20;;
10823;SDS011;39116;59.332;18.034;2022-07-23T04:43:24;3.83;;;1.70;;
10823;SDS011;39116;59.332;18.034;2022-07-23T04:45:50;3.15;;;1.70;;
10823;SDS011;39116;59.332;18.034;2022-07-23T04:48:18;3.60;;;1.83;;
10823;SDS011;39116;59.332;18.034;2022-07-23T04:50:44;5.65;;;2.47;;
10823;SDS011;39116;59.332;18.034;2022-07-23T04:53:11;12.27;;;9.82;;
10823;SDS011;39116;59.332;18.034;2022-07-23T04:55:37;6.22;;;4.05;;
10823;SDS011;39116;59.332;18.034;2022-07-23T04:58:03;4.25;;;2.25;;
10823;SDS011;39116;59.332;18.034;2022-07-23T05:00:30;3.60;;;2.17;;
10823;SDS011;39116;59.332;18.034;2022-07-23T05:02:56;4.53;;;2.63;;
10823;SDS011;39116;59.332;18.034;2022-07-23T05:05:24;3.42;;;1.98;;
10823;SDS011;39116;59.332;18.034;2022-07-23T05:07:50;3.90;;;2.05;;
10823;SDS011;39116;59.332;18.034;2022-07-23T05:10:17;3.90;;;2.60;;
10823;SDS011;39116;59.332;18.034;2022-07-23T05:12:43;5.25;;;3.35;;
10823;SDS011;39116;59.332;18.034;2022-07-23T05:15:10;4.40;;;2.70;;
10823;SDS011;39116;59.332;18.034;2022-07-23T05:17:36;4.05;;;2.70;;
10823;SDS011;39116;59.332;18.034;2022-07-23T05:20:03;2.90;;;2.30;;
10823;SDS011;39116;59.332;18.034;2022-07-23T05:22:31;2.65;;;2.42;;
10823;SDS011;39116;59.332;18.034;2022-07-23T05:24:58;4.03;;;2.00;;
10823;SDS011;39116;59.332;18.034;2022-07-23T05:27:24;4.88;;;2.30;;
10823;SDS011;39116;59.332;18.034;2022-07-23T05:29:51;4.95;;;3.45;;
10823;SDS011;39116;59.332;18.034;2022-07-23T05:32:17;4.57;;;3.05;;
10823;SDS011;39116;59.332;18.034;2022-07-23T05:34:44;3.47;;;2.65;;
10823;SDS011;39116;59.332;18.034;2022-07-23T05:37:10;4.10;;;2.08;;
10823;SDS011;39116;59.332;18.034;2022-07-23T05:39:38;2.67;;;1.90;;
10823;SDS011;39116;59.332;18.034;2022-07-23T05:42:04;2.58;;;1.75;;
10823;SDS011;39116;59.332;18.034;2022-07-23T05:44:31;3.40;;;1.63;;
10823;SDS011;39116;59.332;18.034;2022-07-23T05:46:57;4.00;;;1.95;;
10823;SDS011;39116;59.332;18.034;2022-07-23T05:49:24;4.10;;;2.00;;
10823;SDS011;39116;59.332;18.034;2022-07-23T05:51:50;2.13;;;1.92;;
10823;SDS011;39116;59.332;18.034;2022-07-23T05:54:17;3.33;;;1.80;;
10823;SDS011;39116;59.332;18.034;2022-07-23T05:56:45;3.20;;;1.92;;
10823;SDS011;39116;59.332;18.034;2022-07-23T05:59:11;3.97;;;2.10;;
10823;SDS011;39116;59.332;18.034;2022-07-23T06:01:39;3.42;;;1.88;;
10823;SDS011;39116;59.332;18.034;2022-07-23T06:04:06;2.25;;;1.60;;
10823;SDS011;39116;59.332;18.034;2022-07-23T06:06:32;4.90;;;2.00;;
10823;SDS011;39116;59.332;18.034;2022-07-23T06:08:59;3.25;;;1.90;;
10823;SDS011;39116;59.332;18.034;2022-07-23T06:11:25;3.10;;;1.88;;
10823;SDS011;39116;59.332;18.034;2022-07-23T06:13:53;3.67;;;1.50;;
10823;SDS011;39116;59.332;18.034;2022-07-23T06:16:21;2.03;;;1.70;;
10823;SDS011;39116;59.332;18.034;2022-07-23T06:18:47;4.28;;;1.95;;
10823;SDS011;39116;59.332;18.034;2022-07-23T06:21:14;3.97;;;1.77;;
10823;SDS011;39116;59.332;18.034;2022-07-23T06:23:40;3.20;;;1.83;;
10823;SDS011;39116;59.332;18.034;2022-07-23T06:26:07;1.70;;;1.60;;
10823;SDS011;39116;59.332;18.034;2022-07-23T06:28:33;2.47;;;1.60;;
10823;SDS011;39116;59.332;18.034;2022-07-23T06:31:01;2.90;;;1.70;;
10823;SDS011;39116;59.332;18.034;2022-07-23T06:33:27;1.75;;;1.65;;
10823;SDS011;39116;59.332;18.034;2022-07-23T06:35:54;2.33;;;1.58;;
10823;SDS011;39116;59.332;18.034;2022-07-23T06:38:20;1.85;;;1.38;;
10823;SDS011;39116;59.332;18.034;2022-07-23T06:40:46;2.47;;;1.52;;
10823;SDS011;39116;59.332;18.034;2022-07-23T06:43:13;1.73;;;1.38;;
10823;SDS011;39116;59.332;18.034;2022-07-23T06:45:39;1.80;;;1.70;;
10823;SDS011;39116;59.332;18.034;2022-07-23T06:48:10;1.58;;;1.40;;
10823;SDS011;39116;59.332;18.034;2022-07-23T06:50:36;1.40;;;1.30;;
10823;SDS011;39116;59.332;18.034;2022-07-23T06:53:03;1.60;;;1.20;;
10823;SDS011;39116;59.332;18.034;2022-07-23T06:55:29;2.08;;;1.23;;
10823;SDS011;39116;59.332;18.034;2022-07-23T06:57:56;1.65;;;1.33;;
10823;SDS011;39116;59.332;18.034;2022-07-23T07:00:22;1.80;;;1.25;;
10823;SDS011;39116;59.332;18.034;2022-07-23T07:02:53;1.90;;;1.20;;
10823;SDS011;39116;59.332;18.034;2022-07-23T07:05:20;1.45;;;1.02;;
10823;SDS011;39116;59.332;18.034;2022-07-23T07:07:48;1.45;;;1.02;;
10823;SDS011;39116;59.332;18.034;2022-07-23T07:10:14;1.90;;;1.00;;
10823;SDS011;39116;59.332;18.034;2022-07-23T07:12:42;3.55;;;1.00;;
10823;SDS011;39116;59.332;18.034;2022-07-23T07:15:09;1.20;;;0.90;;
10823;SDS011;39116;59.332;18.034;2022-07-23T07:17:35;1.85;;;1.30;;
10823;SDS011;39116;59.332;18.034;2022-07-23T07:20:02;1.98;;;1.20;;
10823;SDS011;39116;59.332;18.034;2022-07-23T07:22:32;1.00;;;0.90;;
10823;SDS011;39116;59.332;18.034;2022-07-23T07:24:58;1.90;;;0.90;;
10823;SDS011;39116;59.332;18.034;2022-07-23T07:27:25;1.20;;;0.88;;
10823;SDS011;39116;59.332;18.034;2022-07-23T07:29:51;2.00;;;1.40;;
10823;SDS011;39116;59.332;18.034;2022-07-23T07:32:18;1.48;;;1.35;;
10823;SDS011;39116;59.332;18.034;2022-07-23T07:34:44;2.17;;;1.65;;
10823;SDS011;39116;59.332;18.034;2022-07-23T07:37:10;3.67;;;2.53;;
10823;SDS011;39116;59.332;18.034;2022-07-23T07:39:38;1.98;;;1.80;;
10823;SDS011;39116;59.332;18.034;2022-07-23T07:42:05;1.40;;;1.10;;
10823;SDS011;39116;59.332;18.034;2022-07-23T07:44:31;2.30;;;1.60;;
10823;SDS011;39116;59.332;18.034;2022-07-23T07:46:58;1.73;;;1.52;;
10823;SDS011;39116;59.332;18.034;2022-07-23T07:49:24;2.03;;;1.27;;
10823;SDS011;39116;59.332;18.034;2022-07-23T07:51:51;1.52;;;1.30;;
10823;SDS011;39116;59.332;18.034;2022-07-23T07:54:17;1.48;;;1.35;;
10823;SDS011;39116;59.332;18.034;2022-07-23T07:56:45;1.20;;;1.08;;
10823;SDS011;39116;59.332;18.034;2022-07-23T07:59:12;1.20;;;1.10;;
10823;SDS011;39116;59.332;18.034;2022-07-23T08:01:39;2.10;;;1.40;;
10823;SDS011;39116;59.332;18.034;2022-07-23T08:04:06;1.45;;;1.35;;
10823;SDS011;39116;59.332;18.034;2022-07-23T08:06:32;1.17;;;1.08;;
10823;SDS011;39116;59.332;18.034;2022-07-23T08:08:59;1.60;;;1.40;;
10823;SDS011;39116;59.332;18.034;2022-07-23T08:11:25;1.90;;;1.30;;
10823;SDS011;39116;59.332;18.034;2022-07-23T08:13:53;1.13;;;1.02;;
10823;SDS011;39116;59.332;18.034;2022-07-23T08:16:19;0.90;;;0.90;;
10823;SDS011;39116;59.332;18.034;2022-07-23T08:18:46;1.35;;;1.13;;
10823;SDS011;39116;59.332;18.034;2022-07-23T08:21:12;1.00;;;1.00;;
10823;SDS011;39116;59.332;18.034;2022-07-23T08:23:39;1.30;;;1.20;;
10823;SDS011;39116;59.332;18.034;2022-07-23T08:26:05;1.65;;;1.00;;
10823;SDS011;39116;59.332;18.034;2022-07-23T08:28:32;1.60;;;1.48;;
10823;SDS011;39116;59.332;18.034;2022-07-23T08:31:00;3.35;;;1.30;;
10823;SDS011;39116;59.332;18.034;2022-07-23T08:33:26;1.20;;;1.10;;
10823;SDS011;39116;59.332;18.034;2022-07-23T08:35:52;1.10;;;1.10;;
10823;SDS011;39116;59.332;18.034;2022-07-23T08:38:19;2.15;;;1.10;;
10823;SDS011;39116;59.332;18.034;2022-07-23T08:40:46;1.17;;;1.00;;
10823;SDS011;39116;59.332;18.034;2022-07-23T08:43:13;1.13;;;1.02;;
10823;SDS011;39116;59.332;18.034;2022-07-23T08:45:41;2.15;;;1.40;;
10823;SDS011;39116;59.332;18.034;2022-07-23T08:48:11;1.92;;;1.20;;
10823;SDS011;39116;59.332;18.034;2022-07-23T08:50:37;2.50;;;1.10;;
10823;SDS011;39116;59.332;18.034;2022-07-23T08:53:06;1.20;;;0.82;;
10823;SDS011;39116;59.332;18.034;2022-07-23T08:55:33;1.50;;;0.98;;
10823;SDS011;39116;59.332;18.034;2022-07-23T08:58:00;0.95;;;0.90;;
10823;SDS011;39116;59.332;18.034;2022-07-23T09:00:27;1.73;;;1.10;;
10823;SDS011;39116;59.332;18.034;2022-07-23T09:02:53;1.33;;;1.17;;
10823;SDS011;39116;59.332;18.034;2022-07-23T09:05:21;1.50;;;1.10;;
10823;SDS011;39116;59.332;18.034;2022-07-23T09:08:06;1.33;;;1.23;;
10823;SDS011;39116;59.332;18.034;2022-07-23T09:10:43;1.08;;;1.00;;
10823;SDS011;39116;59.332;18.034;2022-07-23T09:13:19;1.23;;;1.13;;
10823;SDS011;39116;59.332;18.034;2022-07-23T09:15:48;1.15;;;1.05;;
10823;SDS011;39116;59.332;18.034;2022-07-23T09:18:15;1.13;;;1.02;;
10823;SDS011;39116;59.332;18.034;2022-07-23T09:20:43;1.10;;;0.80;;
10823;SDS011;39116;59.332;18.034;2022-07-23T09:23:09;0.80;;;0.80;;
10823;SDS011;39116;59.332;18.034;2022-07-23T09:25:36;1.00;;;0.82;;
10823;SDS011;39116;59.332;18.034;2022-07-23T09:28:02;0.88;;;0.80;;
10823;SDS011;39116;59.332;18.034;2022-07-23T09:30:29;1.85;;;0.80;;
10823;SDS011;39116;59.332;18.034;2022-07-23T09:33:08;1.02;;;0.90;;
10823;SDS011;39116;59.332;18.034;2022-07-23T09:35:47;1.02;;;0.88;;
10823;SDS011;39116;59.332;18.034;2022-07-23T09:38:15;1.35;;;1.05;;
10823;SDS011;39116;59.332;18.034;2022-07-23T09:40:41;2.10;;;1.00;;
10823;SDS011;39116;59.332;18.034;2022-07-23T09:43:08;0.80;;;0.80;;
10823;SDS011;39116;59.332;18.034;2022-07-23T09:45:34;1.10;;;0.90;;
10823;SDS011;39116;59.332;18.034;2022-07-23T09:48:10;20.92;;;15.80;;
10823;SDS011;39116;59.332;18.034;2022-07-23T09:50:37;1.35;;;1.25;;
10823;SDS011;39116;59.332;18.034;2022-07-23T09:53:05;10.15;;;7.93;;
10823;SDS011;39116;59.332;18.034;2022-07-23T09:55:32;25.42;;;18.65;;
10823;SDS011;39116;59.332;18.034;2022-07-23T09:58:01;1.67;;;1.00;;
10823;SDS011;39116;59.332;18.034;2022-07-23T10:00:28;0.70;;;0.70;;
10823;SDS011;39116;59.332;18.034;2022-07-23T10:02:55;1.45;;;0.95;;
10823;SDS011;39116;59.332;18.034;2022-07-23T10:05:21;1.50;;;1.40;;
10823;SDS011;39116;59.332;18.034;2022-07-23T10:07:49;1.42;;;1.00;;
10823;SDS011;39116;59.332;18.034;2022-07-23T10:10:18;0.80;;;0.80;;
10823;SDS011;39116;59.332;18.034;2022-07-23T10:12:46;8.43;;;6.30;;
10823;SDS011;39116;59.332;18.034;2022-07-23T10:15:39;2.42;;;1.70;;
10823;SDS011;39116;59.332;18.034;2022-07-23T10:18:05;2.05;;;1.17;;
10823;SDS011;39116;59.332;18.034;2022-07-23T10:20:32;1.45;;;1.23;;
10823;SDS011;39116;59.332;18.034;2022-07-23T10:23:00;0.85;;;0.80;;
10823;SDS011;39116;59.332;18.034;2022-07-23T10:25:30;2.15;;;1.30;;
10823;SDS011;39116;59.332;18.034;2022-07-23T10:28:03;1.35;;;1.25;;
10823;SDS011;39116;59.332;18.034;2022-07-23T10:30:34;1.92;;;1.23;;
10823;SDS011;39116;59.332;18.034;2022-07-23T10:33:15;13.00;;;8.73;;
10823;SDS011;39116;59.332;18.034;2022-07-23T10:35:46;8.77;;;6.28;;
10823;SDS011;39116;59.332;18.034;2022-07-23T10:38:13;4.88;;;3.60;;
10823;SDS011;39116;59.332;18.034;2022-07-23T10:40:56;1.17;;;0.88;;
10823;SDS011;39116;59.332;18.034;2022-07-23T10:43:23;2.03;;;1.00;;
10823;SDS011;39116;59.332;18.034;2022-07-23T10:45:50;1.33;;;0.98;;
10823;SDS011;39116;59.332;18.034;2022-07-23T10:48:18;2.47;;;1.40;;
10823;SDS011;39116;59.332;18.034;2022-07-23T10:53:26;1.38;;;0.70;;
10823;SDS011;39116;59.332;18.034;2022-07-23T10:55:53;1.98;;;0.98;;
10823;SDS011;39116;59.332;18.034;2022-07-23T10:58:22;1.38;;;0.90;;
10823;SDS011;39116;59.332;18.034;2022-07-23T11:00:48;1.63;;;1.00;;
10823;SDS011;39116;59.332;18.034;2022-07-23T11:03:28;1.13;;;0.95;;
10823;SDS011;39116;59.332;18.034;2022-07-23T11:05:54;3.20;;;1.02;;
10823;SDS011;39116;59.332;18.034;2022-07-23T11:08:21;1.08;;;0.90;;
10823;SDS011;39116;59.332;18.034;2022-07-23T11:13:36;1.10;;;1.00;;
10823;SDS011;39116;59.332;18.034;2022-07-23T11:16:03;1.80;;;1.10;;
10823;SDS011;39116;59.332;18.034;2022-07-23T11:24:00;2.35;;;2.15;;
10823;SDS011;39116;59.332;18.034;2022-07-23T11:26:40;3.17;;;2.83;;
10823;SDS011;39116;59.332;18.034;2022-07-23T11:31:52;2.55;;;2.08;;
10823;SDS011;39116;59.332;18.034;2022-07-23T11:34:27;11.75;;;9.30;;
10823;SDS011;39116;59.332;18.034;2022-07-23T11:36:54;2.88;;;1.60;;
10823;SDS011;39116;59.332;18.034;2022-07-23T11:39:21;3.58;;;2.30;;
10823;SDS011;39116;59.332;18.034;2022-07-23T11:41:48;2.25;;;1.70;;
10823;SDS011;39116;59.332;18.034;2022-07-23T11:44:23;1.38;;;1.20;;
10823;SDS011;39116;59.332;18.034;2022-07-23T11:46:55;3.13;;;2.17;;
10823;SDS011;39116;59.332;18.034;2022-07-23T11:49:22;1.77;;;1.58;;
10823;SDS011;39116;59.332;18.034;2022-07-23T11:52:01;2.90;;;2.08;;
10823;SDS011;39116;59.332;18.034;2022-07-23T11:54:28;2.58;;;1.88;;
10823;SDS011;39116;59.332;18.034;2022-07-23T11:56:55;2.35;;;1.50;;
10823;SDS011;39116;59.332;18.034;2022-07-23T11:59:22;1.90;;;1.67;;
10823;SDS011;39116;59.332;18.034;2022-07-23T12:01:57;1.52;;;1.20;;
10823;SDS011;39116;59.332;18.034;2022-07-23T12:04:24;2.92;;;1.85;;
10823;SDS011;39116;59.332;18.034;2022-07-23T12:06:51;2.63;;;1.88;;
10823;SDS011;39116;59.332;18.034;2022-07-23T12:09:17;9.32;;;5.97;;
10823;SDS011;39116;59.332;18.034;2022-07-23T12:11:56;11.43;;;6.60;;
10823;SDS011;39116;59.332;18.034;2022-07-23T12:14:22;6.35;;;2.92;;
10823;SDS011;39116;59.332;18.034;2022-07-23T12:19:32;2.67;;;1.85;;
10823;SDS011;39116;59.332;18.034;2022-07-23T12:21:58;2.80;;;1.90;;
10823;SDS011;39116;59.332;18.034;2022-07-23T12:24:25;2.60;;;1.60;;
10823;SDS011;39116;59.332;18.034;2022-07-23T12:27:09;3.10;;;1.77;;
10823;SDS011;39116;59.332;18.034;2022-07-23T12:29:36;1.52;;;1.30;;
10823;SDS011;39116;59.332;18.034;2022-07-23T12:32:15;2.17;;;1.60;;
10823;SDS011;39116;59.332;18.034;2022-07-23T12:34:43;2.35;;;1.48;;
10823;SDS011;39116;59.332;18.034;2022-07-23T12:37:24;1.67;;;1.42;;
10823;SDS011;39116;59.332;18.034;2022-07-23T12:39:51;1.67;;;1.25;;
10823;SDS011;39116;59.332;18.034;2022-07-23T12:42:17;3.03;;;2.05;;
10823;SDS011;39116;59.332;18.034;2022-07-23T12:47:25;1.10;;;1.00;;
10823;SDS011;39116;59.332;18.034;2022-07-23T12:49:53;1.33;;;1.20;;
10823;SDS011;39116;59.332;18.034;2022-07-23T12:52:19;1.30;;;1.08;;
10823;SDS011;39116;59.332;18.034;2022-07-23T12:54:46;2.45;;;1.20;;
10823;SDS011;39116;59.332;18.034;2022-07-23T12:57:12;1.27;;;1.17;;
10823;SDS011;39116;59.332;18.034;2022-07-23T12:59:38;2.78;;;1.10;;
10823;SDS011;39116;59.332;18.034;2022-07-23T13:02:07;2.17;;;1.30;;
10823;SDS011;39116;59.332;18.034;2022-07-23T13:04:34;1.52;;;1.15;;
10823;SDS011;39116;59.332;18.034;2022-07-23T13:07:02;1.90;;;1.60;;
10823;SDS011;39116;59.332;18.034;2022-07-23T13:09:29;7.75;;;4.97;;
10823;SDS011;39116;59.332;18.034;2022-07-23T13:11:57;2.60;;;1.92;;
10823;SDS011;39116;59.332;18.034;2022-07-23T13:14:24;1.63;;;1.27;;
10823;SDS011;39116;59.332;18.034;2022-07-23T13:16:52;6.93;;;4.40;;
10823;SDS011;39116;59.332;18.034;2022-07-23T13:19:19;4.55;;;3.08;;
10823;SDS011;39116;59.332;18.034;2022-07-23T13:21:47;3.60;;;1.63;;
10823;SDS011;39116;59.332;18.034;2022-07-23T13:24:15;2.13;;;1.48;;
10823;SDS011;39116;59.332;18.034;2022-07-23T13:26:42;3.20;;;2.10;;
10823;SDS011;39116;59.332;18.034;2022-07-23T13:29:09;2.92;;;2.00;;
10823;SDS011;39116;59.332;18.034;2022-07-23T13:31:35;5.40;;;3.40;;
10823;SDS011;39116;59.332;18.034;2022-07-23T13:34:02;7.90;;;6.10;;
10823;SDS011;39116;59.332;18.034;2022-07-23T13:36:28;3.30;;;2.35;;
10823;SDS011;39116;59.332;18.034;2022-07-23T13:38:55;3.00;;;1.90;;
10823;SDS011;39116;59.332;18.034;2022-07-23T13:41:23;2.78;;;2.05;;
10823;SDS011;39116;59.332;18.034;2022-07-23T13:43:49;2.45;;;1.60;;
10823;SDS011;39116;59.332;18.034;2022-07-23T13:46:18;5.28;;;3.42;;
10823;SDS011;39116;59.332;18.034;2022-07-23T13:48:44;1.90;;;1.35;;
10823;SDS011;39116;59.332;18.034;2022-07-23T13:51:10;1.27;;;1.10;;
10823;SDS011;39116;59.332;18.034;2022-07-23T13:53:38;3.83;;;1.27;;
10823;SDS011;39116;59.332;18.034;2022-07-23T13:56:04;1.88;;;1.25;;
10823;SDS011;39116;59.332;18.034;2022-07-23T13:58:32;2.72;;;1.27;;
10823;SDS011;39116;59.332;18.034;2022-07-23T14:00:58;2.63;;;1.45;;
10823;SDS011;39116;59.332;18.034;2022-07-23T14:03:25;2.33;;;1.40;;
10823;SDS011;39116;59.332;18.034;2022-07-23T14:05:52;2.00;;;1.60;;
10823;SDS011;39116;59.332;18.034;2022-07-23T14:08:19;1.63;;;1.20;;
10823;SDS011;39116;59.332;18.034;2022-07-23T14:10:45;1.40;;;1.17;;
10823;SDS011;39116;59.332;18.034;2022-07-23T14:13:11;2.85;;;1.30;;
10823;SDS011;39116;59.332;18.034;2022-07-23T14:15:39;1.13;;;1.02;;
10823;SDS011;39116;59.332;18.034;2022-07-23T14:18:06;1.80;;;1.20;;
10823;SDS011;39116;59.332;18.034;2022-07-23T14:20:32;2.83;;;1.30;;
10823;SDS011;39116;59.332;18.034;2022-07-23T14:22:59;2.05;;;1.70;;
10823;SDS011;39116;59.332;18.034;2022-07-23T14:25:26;1.38;;;1.25;;
10823;SDS011;39116;59.332;18.034;2022-07-23T14:27:52;2.58;;;2.17;;
10823;SDS011;39116;59.332;18.034;2022-07-23T14:30:19;3.25;;;2.50;;
10823;SDS011;39116;59.332;18.034;2022-07-23T14:32:49;2.47;;;2.25;;
10823;SDS011;39116;59.332;18.034;2022-07-23T14:35:15;2.88;;;1.98;;
10823;SDS011;39116;59.332;18.034;2022-07-23T14:37:43;2.83;;;1.63;;
10823;SDS011;39116;59.332;18.034;2022-07-23T14:40:10;2.72;;;1.48;;
10823;SDS011;39116;59.332;18.034;2022-07-23T14:42:36;2.10;;;1.27;;
10823;SDS011;39116;59.332;18.034;2022-07-23T14:45:03;1.48;;;1.08;;
10823;SDS011;39116;59.332;18.034;2022-07-23T14:47:31;2.97;;;1.65;;
10823;SDS011;39116;59.332;18.034;2022-07-23T14:49:59;2.47;;;1.40;;
10823;SDS011;39116;59.332;18.034;2022-07-23T14:52:25;1.48;;;1.20;;